sensor_id;sensor_type;location;lat;lon;timestamp;P1;durP1;ratioP1;P2;durP2;ratioP2
15228;SDS011;7717;47.792;12.076;2022-08-01T00:00:11;3.40;;;3.10;;
15228;SDS011;7717;47.792;12.076;2022-08-01T00:02:36;3.80;;;2.73;;
15228;SDS011;7717;47.792;12.076;2022-08-01T00:05:02;3.00;;;2.80;;
15228;SDS011;7717;47.792;12.076;2022-08-01T00:07:30;4.47;;;2.93;;
15228;SDS011;7717;47.792;12.076;2022-08-01T00:09:55;3.30;;;2.80;;
15228;SDS011;7717;47.792;12.076;2022-08-01T00:12:20;3.33;;;3.03;;
15228;SDS011;7717;47.792;12.076;2022-08-01T00:14:46;2.90;;;2.70;;
15228;SDS011;7717;47.792;12.076;2022-08-01T00:17:11;2.63;;;2.37;;
15228;SDS011;7717;47.792;12.076;2022-08-01T00:19:36;5.00;;;2.93;;
15228;SDS011;7717;47.792;12.076;2022-08-01T00:22:01;2.90;;;2.70;;
15228;SDS011;7717;47.792;12.076;2022-08-01T00:24:27;3.37;;;3.13;;
15228;SDS011;7717;47.792;12.076;2022-08-01T00:26:52;3.13;;;2.83;;
15228;SDS011;7717;47.792;12.076;2022-08-01T00:29:17;2.90;;;2.70;;
15228;SDS011;7717;47.792;12.076;2022-08-01T00:31:43;5.07;;;2.70;;
15228;SDS011;7717;47.792;12.076;2022-08-01T00:34:08;2.83;;;2.63;;
15228;SDS011;7717;47.792;12.076;2022-08-01T00:36:33;4.30;;;2.83;;
15228;SDS011;7717;47.792;12.076;2022-08-01T00:38:58;2.80;;;2.53;;
15228;SDS011;7717;47.792;12.076;2022-08-01T00:41:24;3.40;;;2.60;;
15228;SDS011;7717;47.792;12.076;2022-08-01T00:43:49;3.00;;;2.70;;
15228;SDS011;7717;47.792;12.076;2022-08-01T00:46:14;4.27;;;2.90;;
15228;SDS011;7717;47.792;12.076;2022-08-01T00:48:39;2.87;;;2.67;;
15228;SDS011;7717;47.792;12.076;2022-08-01T00:51:05;2.93;;;2.60;;
15228;SDS011;7717;47.792;12.076;2022-08-01T00:53:30;2.67;;;2.47;;
15228;SDS011;7717;47.792;12.076;2022-08-01T00:55:56;3.00;;;2.80;;
15228;SDS011;7717;47.792;12.076;2022-08-01T00:58:21;3.00;;;2.80;;
15228;SDS011;7717;47.792;12.076;2022-08-01T01:00:47;3.83;;;3.10;;
15228;SDS011;7717;47.792;12.076;2022-08-01T01:03:12;3.00;;;2.80;;
15228;SDS011;7717;47.792;12.076;2022-08-01T01:05:41;3.07;;;2.50;;
15228;SDS011;7717;47.792;12.076;2022-08-01T01:08:13;2.80;;;2.60;;
15228;SDS011;7717;47.792;12.076;2022-08-01T01:13:35;3.40;;;3.00;;
15228;SDS011;7717;47.792;12.076;2022-08-01T01:16:04;4.87;;;2.83;;
15228;SDS011;7717;47.792;12.076;2022-08-01T01:21:32;3.83;;;2.87;;
15228;SDS011;7717;47.792;12.076;2022-08-01T01:29:16;3.37;;;3.17;;
15228;SDS011;7717;47.792;12.076;2022-08-01T01:31:44;5.20;;;3.00;;
15228;SDS011;7717;47.792;12.076;2022-08-01T01:34:11;2.80;;;2.60;;
15228;SDS011;7717;47.792;12.076;2022-08-01T01:36:37;3.63;;;2.70;;
15228;SDS011;7717;47.792;12.076;2022-08-01T01:39:03;2.77;;;2.57;;
15228;SDS011;7717;47.792;12.076;2022-08-01T01:41:29;2.97;;;2.70;;
15228;SDS011;7717;47.792;12.076;2022-08-01T01:43:55;3.13;;;2.93;;
15228;SDS011;7717;47.792;12.076;2022-08-01T01:46:22;3.53;;;2.60;;
15228;SDS011;7717;47.792;12.076;2022-08-01T01:48:48;4.77;;;2.80;;
15228;SDS011;7717;47.792;12.076;2022-08-01T01:51:15;3.47;;;3.17;;
15228;SDS011;7717;47.792;12.076;2022-08-01T01:53:41;3.30;;;3.10;;
15228;SDS011;7717;47.792;12.076;2022-08-01T01:56:08;3.07;;;2.87;;
15228;SDS011;7717;47.792;12.076;2022-08-01T01:58:33;3.10;;;2.90;;
15228;SDS011;7717;47.792;12.076;2022-08-01T02:00:59;6.83;;;3.00;;
15228;SDS011;7717;47.792;12.076;2022-08-01T02:03:26;5.07;;;2.87;;
15228;SDS011;7717;47.792;12.076;2022-08-01T02:05:52;5.67;;;3.20;;
15228;SDS011;7717;47.792;12.076;2022-08-01T02:08:18;3.27;;;2.97;;
15228;SDS011;7717;47.792;12.076;2022-08-01T02:10:45;2.90;;;2.67;;
15228;SDS011;7717;47.792;12.076;2022-08-01T02:13:32;3.07;;;2.87;;
15228;SDS011;7717;47.792;12.076;2022-08-01T02:15:58;2.53;;;2.33;;
15228;SDS011;7717;47.792;12.076;2022-08-01T02:18:23;3.17;;;2.97;;
15228;SDS011;7717;47.792;12.076;2022-08-01T02:20:49;3.10;;;2.80;;
15228;SDS011;7717;47.792;12.076;2022-08-01T02:23:15;3.33;;;3.03;;
15228;SDS011;7717;47.792;12.076;2022-08-01T02:25:46;3.77;;;3.00;;
15228;SDS011;7717;47.792;12.076;2022-08-01T02:28:23;3.37;;;3.17;;
15228;SDS011;7717;47.792;12.076;2022-08-01T02:30:52;4.90;;;2.87;;
15228;SDS011;7717;47.792;12.076;2022-08-01T02:33:19;4.13;;;3.30;;
15228;SDS011;7717;47.792;12.076;2022-08-01T02:35:48;5.63;;;3.30;;
15228;SDS011;7717;47.792;12.076;2022-08-01T02:38:14;3.50;;;3.07;;
15228;SDS011;7717;47.792;12.076;2022-08-01T02:40:41;3.43;;;3.23;;
15228;SDS011;7717;47.792;12.076;2022-08-01T02:43:07;4.37;;;3.20;;
15228;SDS011;7717;47.792;12.076;2022-08-01T02:45:34;3.47;;;3.23;;
15228;SDS011;7717;47.792;12.076;2022-08-01T02:48:19;3.20;;;3.00;;
15228;SDS011;7717;47.792;12.076;2022-08-01T02:50:45;3.77;;;3.10;;
15228;SDS011;7717;47.792;12.076;2022-08-01T02:53:12;3.60;;;3.30;;
15228;SDS011;7717;47.792;12.076;2022-08-01T02:55:38;3.30;;;3.00;;
15228;SDS011;7717;47.792;12.076;2022-08-01T02:58:04;3.57;;;3.00;;
15228;SDS011;7717;47.792;12.076;2022-08-01T03:00:31;3.40;;;3.03;;
15228;SDS011;7717;47.792;12.076;2022-08-01T03:02:57;4.03;;;3.10;;
15228;SDS011;7717;47.792;12.076;2022-08-01T03:05:24;3.37;;;2.80;;
15228;SDS011;7717;47.792;12.076;2022-08-01T03:07:49;3.13;;;2.93;;
15228;SDS011;7717;47.792;12.076;2022-08-01T03:10:15;3.20;;;2.90;;
15228;SDS011;7717;47.792;12.076;2022-08-01T03:12:41;3.03;;;2.80;;
15228;SDS011;7717;47.792;12.076;2022-08-01T03:15:07;3.37;;;3.17;;
15228;SDS011;7717;47.792;12.076;2022-08-01T03:17:34;3.80;;;3.50;;
15228;SDS011;7717;47.792;12.076;2022-08-01T03:20:01;3.23;;;3.00;;
15228;SDS011;7717;47.792;12.076;2022-08-01T03:22:27;7.40;;;3.13;;
15228;SDS011;7717;47.792;12.076;2022-08-01T03:24:54;3.20;;;2.90;;
15228;SDS011;7717;47.792;12.076;2022-08-01T03:27:22;3.20;;;3.00;;
15228;SDS011;7717;47.792;12.076;2022-08-01T03:29:49;3.93;;;3.23;;
15228;SDS011;7717;47.792;12.076;2022-08-01T03:32:15;4.77;;;3.57;;
15228;SDS011;7717;47.792;12.076;2022-08-01T03:34:41;4.20;;;2.80;;
15228;SDS011;7717;47.792;12.076;2022-08-01T03:39:47;3.40;;;3.20;;
15228;SDS011;7717;47.792;12.076;2022-08-01T03:42:16;2.97;;;2.80;;
15228;SDS011;7717;47.792;12.076;2022-08-01T03:44:43;4.20;;;3.00;;
15228;SDS011;7717;47.792;12.076;2022-08-01T03:47:11;3.47;;;3.17;;
15228;SDS011;7717;47.792;12.076;2022-08-01T03:49:40;3.40;;;3.20;;
15228;SDS011;7717;47.792;12.076;2022-08-01T03:52:07;3.20;;;3.00;;
15228;SDS011;7717;47.792;12.076;2022-08-01T03:54:34;3.40;;;3.20;;
15228;SDS011;7717;47.792;12.076;2022-08-01T03:57:00;4.30;;;4.00;;
15228;SDS011;7717;47.792;12.076;2022-08-01T03:59:26;6.23;;;3.20;;
15228;SDS011;7717;47.792;12.076;2022-08-01T04:01:51;7.93;;;3.80;;
15228;SDS011;7717;47.792;12.076;2022-08-01T04:04:17;3.23;;;3.03;;
15228;SDS011;7717;47.792;12.076;2022-08-01T04:06:43;3.90;;;3.50;;
15228;SDS011;7717;47.792;12.076;2022-08-01T04:09:11;3.43;;;3.13;;
15228;SDS011;7717;47.792;12.076;2022-08-01T04:11:39;3.93;;;3.27;;
15228;SDS011;7717;47.792;12.076;2022-08-01T04:14:07;5.67;;;4.03;;
15228;SDS011;7717;47.792;12.076;2022-08-01T04:16:33;3.80;;;3.50;;
15228;SDS011;7717;47.792;12.076;2022-08-01T04:18:59;3.50;;;3.20;;
15228;SDS011;7717;47.792;12.076;2022-08-01T04:21:25;4.47;;;4.00;;
15228;SDS011;7717;47.792;12.076;2022-08-01T04:23:53;4.23;;;3.67;;
15228;SDS011;7717;47.792;12.076;2022-08-01T04:26:19;3.40;;;3.10;;
15228;SDS011;7717;47.792;12.076;2022-08-01T04:28:44;4.57;;;4.17;;
15228;SDS011;7717;47.792;12.076;2022-08-01T04:31:10;4.30;;;4.00;;
15228;SDS011;7717;47.792;12.076;2022-08-01T04:33:37;4.03;;;3.73;;
15228;SDS011;7717;47.792;12.076;2022-08-01T04:36:03;4.30;;;3.90;;
15228;SDS011;7717;47.792;12.076;2022-08-01T04:38:29;4.17;;;3.70;;
15228;SDS011;7717;47.792;12.076;2022-08-01T04:40:55;4.73;;;3.83;;
15228;SDS011;7717;47.792;12.076;2022-08-01T04:43:21;4.33;;;3.90;;
15228;SDS011;7717;47.792;12.076;2022-08-01T04:45:46;4.20;;;3.90;;
15228;SDS011;7717;47.792;12.076;2022-08-01T04:48:12;4.03;;;3.63;;
15228;SDS011;7717;47.792;12.076;2022-08-01T04:50:38;4.03;;;3.70;;
15228;SDS011;7717;47.792;12.076;2022-08-01T04:53:03;3.87;;;3.60;;
15228;SDS011;7717;47.792;12.076;2022-08-01T04:55:29;3.70;;;3.50;;
15228;SDS011;7717;47.792;12.076;2022-08-01T04:57:56;3.90;;;3.60;;
15228;SDS011;7717;47.792;12.076;2022-08-01T05:00:21;3.97;;;3.70;;
15228;SDS011;7717;47.792;12.076;2022-08-01T05:02:46;4.17;;;3.87;;
15228;SDS011;7717;47.792;12.076;2022-08-01T05:05:12;4.07;;;3.77;;
15228;SDS011;7717;47.792;12.076;2022-08-01T05:07:37;5.07;;;3.90;;
15228;SDS011;7717;47.792;12.076;2022-08-01T05:10:04;4.23;;;4.03;;
15228;SDS011;7717;47.792;12.076;2022-08-01T05:12:29;4.40;;;4.10;;
15228;SDS011;7717;47.792;12.076;2022-08-01T05:14:56;5.03;;;3.97;;
15228;SDS011;7717;47.792;12.076;2022-08-01T05:17:21;7.47;;;3.97;;
15228;SDS011;7717;47.792;12.076;2022-08-01T05:19:47;4.40;;;3.50;;
15228;SDS011;7717;47.792;12.076;2022-08-01T05:22:12;4.17;;;3.87;;
15228;SDS011;7717;47.792;12.076;2022-08-01T05:24:38;4.33;;;4.03;;
15228;SDS011;7717;47.792;12.076;2022-08-01T05:27:04;4.63;;;3.80;;
15228;SDS011;7717;47.792;12.076;2022-08-01T05:29:30;3.80;;;3.50;;
15228;SDS011;7717;47.792;12.076;2022-08-01T05:31:55;4.73;;;3.70;;
15228;SDS011;7717;47.792;12.076;2022-08-01T05:34:21;3.80;;;3.40;;
15228;SDS011;7717;47.792;12.076;2022-08-01T05:36:46;3.90;;;3.60;;
15228;SDS011;7717;47.792;12.076;2022-08-01T05:39:12;4.23;;;3.93;;
15228;SDS011;7717;47.792;12.076;2022-08-01T05:41:37;3.77;;;3.57;;
15228;SDS011;7717;47.792;12.076;2022-08-01T05:44:03;3.47;;;3.27;;
15228;SDS011;7717;47.792;12.076;2022-08-01T05:46:29;4.43;;;3.80;;
15228;SDS011;7717;47.792;12.076;2022-08-01T05:48:55;3.33;;;3.03;;
15228;SDS011;7717;47.792;12.076;2022-08-01T05:51:21;4.00;;;3.70;;
15228;SDS011;7717;47.792;12.076;2022-08-01T05:53:46;3.63;;;3.33;;
15228;SDS011;7717;47.792;12.076;2022-08-01T05:56:13;3.60;;;3.40;;
15228;SDS011;7717;47.792;12.076;2022-08-01T05:58:38;3.67;;;3.47;;
15228;SDS011;7717;47.792;12.076;2022-08-01T06:01:03;4.37;;;3.60;;
15228;SDS011;7717;47.792;12.076;2022-08-01T06:03:28;3.37;;;3.03;;
15228;SDS011;7717;47.792;12.076;2022-08-01T06:05:56;3.77;;;3.33;;
15228;SDS011;7717;47.792;12.076;2022-08-01T06:08:21;3.50;;;3.20;;
15228;SDS011;7717;47.792;12.076;2022-08-01T06:10:46;5.63;;;3.17;;
15228;SDS011;7717;47.792;12.076;2022-08-01T06:13:12;3.30;;;3.10;;
15228;SDS011;7717;47.792;12.076;2022-08-01T06:15:37;3.00;;;2.90;;
15228;SDS011;7717;47.792;12.076;2022-08-01T06:18:02;5.30;;;3.10;;
15228;SDS011;7717;47.792;12.076;2022-08-01T06:20:30;3.73;;;3.43;;
15228;SDS011;7717;47.792;12.076;2022-08-01T06:22:55;3.20;;;3.00;;
15228;SDS011;7717;47.792;12.076;2022-08-01T06:25:20;3.40;;;3.00;;
15228;SDS011;7717;47.792;12.076;2022-08-01T06:27:45;3.70;;;3.40;;
15228;SDS011;7717;47.792;12.076;2022-08-01T06:30:11;3.77;;;3.20;;
15228;SDS011;7717;47.792;12.076;2022-08-01T06:32:36;3.13;;;2.87;;
15228;SDS011;7717;47.792;12.076;2022-08-01T06:35:01;5.20;;;3.00;;
15228;SDS011;7717;47.792;12.076;2022-08-01T06:37:30;3.87;;;2.87;;
15228;SDS011;7717;47.792;12.076;2022-08-01T06:40:00;2.83;;;2.40;;
15228;SDS011;7717;47.792;12.076;2022-08-01T06:42:25;2.97;;;2.70;;
15228;SDS011;7717;47.792;12.076;2022-08-01T06:44:50;2.80;;;2.33;;
15228;SDS011;7717;47.792;12.076;2022-08-01T06:47:15;2.50;;;2.30;;
15228;SDS011;7717;47.792;12.076;2022-08-01T06:49:41;2.93;;;2.70;;
15228;SDS011;7717;47.792;12.076;2022-08-01T06:52:06;2.50;;;2.30;;
15228;SDS011;7717;47.792;12.076;2022-08-01T06:54:31;2.00;;;1.90;;
15228;SDS011;7717;47.792;12.076;2022-08-01T06:56:56;2.57;;;2.37;;
15228;SDS011;7717;47.792;12.076;2022-08-01T06:59:21;3.07;;;2.43;;
15228;SDS011;7717;47.792;12.076;2022-08-01T07:01:47;3.33;;;2.37;;
15228;SDS011;7717;47.792;12.076;2022-08-01T07:04:12;2.60;;;2.40;;
15228;SDS011;7717;47.792;12.076;2022-08-01T07:06:37;3.07;;;2.77;;
15228;SDS011;7717;47.792;12.076;2022-08-01T07:09:06;2.63;;;2.43;;
15228;SDS011;7717;47.792;12.076;2022-08-01T07:11:31;4.40;;;2.83;;
15228;SDS011;7717;47.792;12.076;2022-08-01T07:13:56;2.57;;;2.20;;
15228;SDS011;7717;47.792;12.076;2022-08-01T07:16:22;3.17;;;2.87;;
15228;SDS011;7717;47.792;12.076;2022-08-01T07:18:50;2.23;;;2.03;;
15228;SDS011;7717;47.792;12.076;2022-08-01T07:21:16;3.03;;;2.60;;
15228;SDS011;7717;47.792;12.076;2022-08-01T07:23:41;2.30;;;2.20;;
15228;SDS011;7717;47.792;12.076;2022-08-01T07:26:06;2.30;;;2.07;;
15228;SDS011;7717;47.792;12.076;2022-08-01T07:28:32;3.22;;;2.58;;
15228;SDS011;7717;47.792;12.076;2022-08-01T07:30:57;2.60;;;2.40;;
15228;SDS011;7717;47.792;12.076;2022-08-01T07:33:23;2.47;;;2.28;;
15228;SDS011;7717;47.792;12.076;2022-08-01T07:35:50;3.28;;;2.20;;
15228;SDS011;7717;47.792;12.076;2022-08-01T07:38:15;4.17;;;2.30;;
15228;SDS011;7717;47.792;12.076;2022-08-01T07:40:42;2.70;;;1.95;;
15228;SDS011;7717;47.792;12.076;2022-08-01T07:43:07;3.85;;;2.30;;
15228;SDS011;7717;47.792;12.076;2022-08-01T07:45:35;2.42;;;2.20;;
15228;SDS011;7717;47.792;12.076;2022-08-01T07:48:06;2.60;;;2.40;;
15228;SDS011;7717;47.792;12.076;2022-08-01T07:50:34;3.97;;;2.65;;
15228;SDS011;7717;47.792;12.076;2022-08-01T07:53:05;3.28;;;2.50;;
15228;SDS011;7717;47.792;12.076;2022-08-01T07:55:40;2.40;;;2.20;;
15228;SDS011;7717;47.792;12.076;2022-08-01T07:58:08;3.28;;;2.45;;
15228;SDS011;7717;47.792;12.076;2022-08-01T08:00:36;2.85;;;2.50;;
15228;SDS011;7717;47.792;12.076;2022-08-01T08:03:09;2.40;;;2.20;;
15228;SDS011;7717;47.792;12.076;2022-08-01T08:08:10;2.70;;;2.42;;
15228;SDS011;7717;47.792;12.076;2022-08-01T08:10:35;2.78;;;2.50;;
15228;SDS011;7717;47.792;12.076;2022-08-01T08:13:00;2.53;;;2.33;;
15228;SDS011;7717;47.792;12.076;2022-08-01T08:15:26;2.60;;;2.13;;
15228;SDS011;7717;47.792;12.076;2022-08-01T08:17:52;2.50;;;2.33;;
15228;SDS011;7717;47.792;12.076;2022-08-01T08:20:17;2.38;;;2.28;;
15228;SDS011;7717;47.792;12.076;2022-08-01T08:22:43;2.22;;;2.10;;
15228;SDS011;7717;47.792;12.076;2022-08-01T08:25:08;3.63;;;2.72;;
15228;SDS011;7717;47.792;12.076;2022-08-01T08:27:34;2.40;;;2.20;;
15228;SDS011;7717;47.792;12.076;2022-08-01T08:30:00;2.10;;;2.00;;
15228;SDS011;7717;47.792;12.076;2022-08-01T08:32:25;2.55;;;2.30;;
15228;SDS011;7717;47.792;12.076;2022-08-01T08:34:50;2.70;;;2.50;;
15228;SDS011;7717;47.792;12.076;2022-08-01T08:37:16;2.22;;;2.13;;
15228;SDS011;7717;47.792;12.076;2022-08-01T08:39:42;2.47;;;2.28;;
15228;SDS011;7717;47.792;12.076;2022-08-01T08:42:08;2.33;;;2.22;;
15228;SDS011;7717;47.792;12.076;2022-08-01T08:44:33;2.72;;;2.42;;
15228;SDS011;7717;47.792;12.076;2022-08-01T08:47:00;3.20;;;2.67;;
15228;SDS011;7717;47.792;12.076;2022-08-01T08:49:27;4.43;;;2.25;;
15228;SDS011;7717;47.792;12.076;2022-08-01T08:51:53;2.35;;;2.15;;
15228;SDS011;7717;47.792;12.076;2022-08-01T08:54:22;2.13;;;1.92;;
15228;SDS011;7717;47.792;12.076;2022-08-01T08:56:50;2.35;;;2.15;;
15228;SDS011;7717;47.792;12.076;2022-08-01T08:59:16;2.25;;;2.15;;
15228;SDS011;7717;47.792;12.076;2022-08-01T09:01:42;2.15;;;2.05;;
15228;SDS011;7717;47.792;12.076;2022-08-01T09:04:07;2.17;;;2.08;;
15228;SDS011;7717;47.792;12.076;2022-08-01T09:06:33;2.35;;;2.15;;
15228;SDS011;7717;47.792;12.076;2022-08-01T09:09:00;2.15;;;1.92;;
15228;SDS011;7717;47.792;12.076;2022-08-01T09:11:27;2.35;;;2.15;;
15228;SDS011;7717;47.792;12.076;2022-08-01T09:16:33;2.03;;;1.92;;
15228;SDS011;7717;47.792;12.076;2022-08-01T09:19:06;2.10;;;1.95;;
15228;SDS011;7717;47.792;12.076;2022-08-01T09:21:31;1.98;;;1.88;;
15228;SDS011;7717;47.792;12.076;2022-08-01T09:23:57;2.20;;;2.10;;
15228;SDS011;7717;47.792;12.076;2022-08-01T09:26:32;3.38;;;2.20;;
15228;SDS011;7717;47.792;12.076;2022-08-01T09:28:58;2.50;;;2.30;;
15228;SDS011;7717;47.792;12.076;2022-08-01T09:31:25;2.40;;;1.85;;
15228;SDS011;7717;47.792;12.076;2022-08-01T09:33:52;2.20;;;2.00;;
15228;SDS011;7717;47.792;12.076;2022-08-01T09:36:18;2.03;;;1.92;;
15228;SDS011;7717;47.792;12.076;2022-08-01T09:38:44;2.17;;;1.98;;
15228;SDS011;7717;47.792;12.076;2022-08-01T09:41:09;2.45;;;2.13;;
15228;SDS011;7717;47.792;12.076;2022-08-01T09:43:36;2.28;;;1.83;;
15228;SDS011;7717;47.792;12.076;2022-08-01T09:46:19;3.65;;;2.13;;
15228;SDS011;7717;47.792;12.076;2022-08-01T09:48:54;1.88;;;1.77;;
15228;SDS011;7717;47.792;12.076;2022-08-01T09:51:41;2.08;;;1.98;;
15228;SDS011;7717;47.792;12.076;2022-08-01T09:54:06;1.88;;;1.77;;
15228;SDS011;7717;47.792;12.076;2022-08-01T09:59:03;1.52;;;1.50;;
15228;SDS011;7717;47.792;12.076;2022-08-01T10:01:40;2.47;;;2.30;;
15228;SDS011;7717;47.792;12.076;2022-08-01T10:06:41;2.20;;;2.00;;
15228;SDS011;7717;47.792;12.076;2022-08-01T10:09:08;1.77;;;1.67;;
15228;SDS011;7717;47.792;12.076;2022-08-01T10:11:33;1.67;;;1.58;;
15228;SDS011;7717;47.792;12.076;2022-08-01T10:14:01;2.30;;;1.50;;
15228;SDS011;7717;47.792;12.076;2022-08-01T10:16:27;1.90;;;1.80;;
15228;SDS011;7717;47.792;12.076;2022-08-01T10:18:53;1.65;;;1.55;;
15228;SDS011;7717;47.792;12.076;2022-08-01T10:21:19;1.50;;;1.30;;
15228;SDS011;7717;47.792;12.076;2022-08-01T10:23:44;1.48;;;1.40;;
15228;SDS011;7717;47.792;12.076;2022-08-01T10:26:10;2.00;;;1.90;;
15228;SDS011;7717;47.792;12.076;2022-08-01T10:28:36;5.10;;;2.35;;
15228;SDS011;7717;47.792;12.076;2022-08-01T10:31:05;2.55;;;1.77;;
15228;SDS011;7717;47.792;12.076;2022-08-01T10:33:31;1.85;;;1.75;;
15228;SDS011;7717;47.792;12.076;2022-08-01T10:35:57;1.90;;;1.80;;
15228;SDS011;7717;47.792;12.076;2022-08-01T10:38:23;1.50;;;1.40;;
15228;SDS011;7717;47.792;12.076;2022-08-01T10:40:48;1.67;;;1.55;;
15228;SDS011;7717;47.792;12.076;2022-08-01T10:43:14;2.13;;;1.70;;
15228;SDS011;7717;47.792;12.076;2022-08-01T10:45:41;1.70;;;1.60;;
15228;SDS011;7717;47.792;12.076;2022-08-01T10:48:20;1.50;;;1.40;;
15228;SDS011;7717;47.792;12.076;2022-08-01T10:50:51;1.70;;;1.60;;
15228;SDS011;7717;47.792;12.076;2022-08-01T10:58:10;2.60;;;1.30;;
15228;SDS011;7717;47.792;12.076;2022-08-01T11:00:35;1.50;;;1.40;;
15228;SDS011;7717;47.792;12.076;2022-08-01T11:03:01;1.50;;;1.40;;
15228;SDS011;7717;47.792;12.076;2022-08-01T11:05:32;1.42;;;1.40;;
15228;SDS011;7717;47.792;12.076;2022-08-01T11:07:58;1.40;;;1.30;;
15228;SDS011;7717;47.792;12.076;2022-08-01T11:12:58;1.67;;;1.58;;
15228;SDS011;7717;47.792;12.076;2022-08-01T11:15:26;1.60;;;1.42;;
15228;SDS011;7717;47.792;12.076;2022-08-01T11:17:53;1.42;;;1.33;;
15228;SDS011;7717;47.792;12.076;2022-08-01T11:20:31;2.05;;;1.63;;
15228;SDS011;7717;47.792;12.076;2022-08-01T11:26:08;1.83;;;1.40;;
15228;SDS011;7717;47.792;12.076;2022-08-01T11:30:42;1.65;;;1.55;;
15228;SDS011;7717;47.792;12.076;2022-08-01T11:33:08;1.52;;;1.25;;
15228;SDS011;7717;47.792;12.076;2022-08-01T11:35:34;1.50;;;1.40;;
15228;SDS011;7717;47.792;12.076;2022-08-01T11:40:44;1.73;;;1.60;;
15228;SDS011;7717;47.792;12.076;2022-08-01T11:43:16;1.30;;;1.30;;
15228;SDS011;7717;47.792;12.076;2022-08-01T11:45:48;1.80;;;1.50;;
15228;SDS011;7717;47.792;12.076;2022-08-01T11:48:17;1.60;;;1.50;;
15228;SDS011;7717;47.792;12.076;2022-08-01T11:50:43;1.88;;;1.60;;
15228;SDS011;7717;47.792;12.076;2022-08-01T11:53:08;2.30;;;1.40;;
15228;SDS011;7717;47.792;12.076;2022-08-01T11:55:34;1.50;;;1.20;;
15228;SDS011;7717;47.792;12.076;2022-08-01T12:00:25;1.63;;;1.40;;
15228;SDS011;7717;47.792;12.076;2022-08-01T12:02:57;1.95;;;1.58;;
15228;SDS011;7717;47.792;12.076;2022-08-01T12:05:23;1.33;;;1.23;;
15228;SDS011;7717;47.792;12.076;2022-08-01T12:07:49;2.58;;;1.50;;
15228;SDS011;7717;47.792;12.076;2022-08-01T12:10:15;1.77;;;1.45;;
15228;SDS011;7717;47.792;12.076;2022-08-01T12:12:45;1.35;;;1.20;;
15228;SDS011;7717;47.792;12.076;2022-08-01T12:15:11;1.00;;;1.00;;
15228;SDS011;7717;47.792;12.076;2022-08-01T12:17:40;1.10;;;1.10;;
15228;SDS011;7717;47.792;12.076;2022-08-01T12:20:07;1.17;;;1.02;;
15228;SDS011;7717;47.792;12.076;2022-08-01T12:22:32;1.20;;;1.10;;
15228;SDS011;7717;47.792;12.076;2022-08-01T12:25:05;1.58;;;1.10;;
15228;SDS011;7717;47.792;12.076;2022-08-01T12:27:30;1.40;;;1.30;;
15228;SDS011;7717;47.792;12.076;2022-08-01T12:29:56;1.40;;;1.30;;
15228;SDS011;7717;47.792;12.076;2022-08-01T12:32:23;2.00;;;1.27;;
15228;SDS011;7717;47.792;12.076;2022-08-01T12:34:49;1.25;;;1.15;;
15228;SDS011;7717;47.792;12.076;2022-08-01T12:37:14;2.80;;;1.13;;
15228;SDS011;7717;47.792;12.076;2022-08-01T12:39:41;2.17;;;1.38;;
15228;SDS011;7717;47.792;12.076;2022-08-01T12:42:06;2.03;;;1.00;;
15228;SDS011;7717;47.792;12.076;2022-08-01T12:44:32;0.90;;;0.90;;
15228;SDS011;7717;47.792;12.076;2022-08-01T12:46:57;0.98;;;0.98;;
15228;SDS011;7717;47.792;12.076;2022-08-01T12:49:23;1.80;;;1.70;;
15228;SDS011;7717;47.792;12.076;2022-08-01T12:51:49;1.25;;;1.10;;
15228;SDS011;7717;47.792;12.076;2022-08-01T12:54:15;1.13;;;1.05;;
15228;SDS011;7717;47.792;12.076;2022-08-01T12:56:40;2.15;;;1.63;;
15228;SDS011;7717;47.792;12.076;2022-08-01T12:59:27;1.30;;;1.20;;
15228;SDS011;7717;47.792;12.076;2022-08-01T13:01:56;2.17;;;1.52;;
15228;SDS011;7717;47.792;12.076;2022-08-01T13:04:22;1.63;;;1.15;;
15228;SDS011;7717;47.792;12.076;2022-08-01T13:06:47;1.08;;;1.08;;
15228;SDS011;7717;47.792;12.076;2022-08-01T13:09:14;1.23;;;1.20;;
15228;SDS011;7717;47.792;12.076;2022-08-01T13:11:41;2.08;;;1.33;;
15228;SDS011;7717;47.792;12.076;2022-08-01T13:14:06;2.15;;;1.10;;
15228;SDS011;7717;47.792;12.076;2022-08-01T13:16:32;0.95;;;0.85;;
15228;SDS011;7717;47.792;12.076;2022-08-01T13:18:57;1.73;;;1.05;;
15228;SDS011;7717;47.792;12.076;2022-08-01T13:24:08;2.10;;;1.05;;
15228;SDS011;7717;47.792;12.076;2022-08-01T13:26:50;1.17;;;1.08;;
15228;SDS011;7717;47.792;12.076;2022-08-01T13:31:42;1.27;;;1.08;;
15228;SDS011;7717;47.792;12.076;2022-08-01T13:34:07;1.02;;;1.00;;
15228;SDS011;7717;47.792;12.076;2022-08-01T13:36:33;1.70;;;0.93;;
15228;SDS011;7717;47.792;12.076;2022-08-01T13:38:59;1.85;;;1.00;;
15228;SDS011;7717;47.792;12.076;2022-08-01T13:41:43;1.02;;;0.93;;
15228;SDS011;7717;47.792;12.076;2022-08-01T13:44:08;1.77;;;1.00;;
15228;SDS011;7717;47.792;12.076;2022-08-01T13:46:39;1.48;;;1.15;;
15228;SDS011;7717;47.792;12.076;2022-08-01T13:49:05;2.30;;;1.52;;
15228;SDS011;7717;47.792;12.076;2022-08-01T13:51:31;1.10;;;1.00;;
15228;SDS011;7717;47.792;12.076;2022-08-01T13:53:56;1.00;;;1.00;;
15228;SDS011;7717;47.792;12.076;2022-08-01T13:56:22;1.10;;;1.00;;
15228;SDS011;7717;47.792;12.076;2022-08-01T13:58:47;1.42;;;1.35;;
15228;SDS011;7717;47.792;12.076;2022-08-01T14:01:12;1.33;;;1.10;;
15228;SDS011;7717;47.792;12.076;2022-08-01T14:03:38;1.08;;;1.08;;
15228;SDS011;7717;47.792;12.076;2022-08-01T14:06:03;1.13;;;1.00;;
15228;SDS011;7717;47.792;12.076;2022-08-01T14:08:29;1.05;;;0.90;;
15228;SDS011;7717;47.792;12.076;2022-08-01T14:10:54;1.20;;;0.90;;
15228;SDS011;7717;47.792;12.076;2022-08-01T14:13:23;1.23;;;1.13;;
15228;SDS011;7717;47.792;12.076;2022-08-01T14:15:49;0.95;;;0.88;;
15228;SDS011;7717;47.792;12.076;2022-08-01T14:18:16;1.30;;;1.20;;
15228;SDS011;7717;47.792;12.076;2022-08-01T14:20:47;1.10;;;1.00;;
15228;SDS011;7717;47.792;12.076;2022-08-01T14:23:12;1.38;;;1.20;;
15228;SDS011;7717;47.792;12.076;2022-08-01T14:25:38;1.88;;;1.15;;
15228;SDS011;7717;47.792;12.076;2022-08-01T14:28:04;1.17;;;0.90;;
15228;SDS011;7717;47.792;12.076;2022-08-01T14:30:29;1.55;;;1.00;;
15228;SDS011;7717;47.792;12.076;2022-08-01T14:32:54;1.95;;;1.38;;
15228;SDS011;7717;47.792;12.076;2022-08-01T14:35:20;1.65;;;1.17;;
15228;SDS011;7717;47.792;12.076;2022-08-01T14:37:45;1.40;;;1.30;;
15228;SDS011;7717;47.792;12.076;2022-08-01T14:40:10;1.10;;;1.00;;
15228;SDS011;7717;47.792;12.076;2022-08-01T14:42:37;1.58;;;1.48;;
15228;SDS011;7717;47.792;12.076;2022-08-01T14:45:03;1.20;;;1.10;;
15228;SDS011;7717;47.792;12.076;2022-08-01T14:47:29;1.25;;;1.20;;
15228;SDS011;7717;47.792;12.076;2022-08-01T14:49:54;1.10;;;1.02;;
15228;SDS011;7717;47.792;12.076;2022-08-01T14:52:20;1.52;;;1.08;;
15228;SDS011;7717;47.792;12.076;2022-08-01T14:54:46;1.17;;;1.08;;
15228;SDS011;7717;47.792;12.076;2022-08-01T14:57:12;1.27;;;1.17;;
15228;SDS011;7717;47.792;12.076;2022-08-01T14:59:37;2.28;;;1.15;;
15228;SDS011;7717;47.792;12.076;2022-08-01T15:02:02;2.10;;;1.17;;
15228;SDS011;7717;47.792;12.076;2022-08-01T15:04:28;1.25;;;0.82;;
15228;SDS011;7717;47.792;12.076;2022-08-01T15:06:53;0.85;;;0.85;;
15228;SDS011;7717;47.792;12.076;2022-08-01T15:09:19;1.00;;;1.00;;
15228;SDS011;7717;47.792;12.076;2022-08-01T15:11:44;1.15;;;1.02;;
15228;SDS011;7717;47.792;12.076;2022-08-01T15:14:11;1.40;;;1.10;;
15228;SDS011;7717;47.792;12.076;2022-08-01T15:16:55;0.93;;;0.90;;
15228;SDS011;7717;47.792;12.076;2022-08-01T15:19:21;2.22;;;1.00;;
15228;SDS011;7717;47.792;12.076;2022-08-01T15:21:46;1.10;;;1.10;;
15228;SDS011;7717;47.792;12.076;2022-08-01T15:24:13;1.20;;;1.10;;
15228;SDS011;7717;47.792;12.076;2022-08-01T15:26:38;1.25;;;1.15;;
15228;SDS011;7717;47.792;12.076;2022-08-01T15:29:03;1.42;;;1.33;;
15228;SDS011;7717;47.792;12.076;2022-08-01T15:31:29;2.13;;;1.17;;